Disclaimer

Please do not use the information listed here in-flight or in-navigation, as they are not provided to us by the airports but are provided by volunteers, so they might be outdated.

Search


Regions


Airport information page

Radio informations:
Tower (TWR) - 118.7 MHz
BARRANQUILLA APP - 119.1 MHz

Airport informations:
Latitude: 11° 07' 10.74" N
Longitude: 074° 13' 50.33" W
Elevation: 22 feet - 7 meters
Operating hours: Remarks
Operating agency: Civil government, landing fees and diplomatic clearance may be required
Timezone: UTC-5
Fuel: 100/130 MIL Spec, low lead, aviation gasoline (BLUE)

Runway information:
01/19 - 5577 x 98 feet< - >1700 x 30 meters

Recent METARs:
SKSM 202000Z 30004KT 9999 FEW020TCU 32/25 A2979 RMK TCU/E
SKSM 202000Z 30004KT 9999 FEW020TCU 32/25 A2979 RMK TCU/E
SKSM 202100Z 01012KT 9999 FEW020TCU SCT200 33/24 A2977 RMK TCU/E

Airport on the map: